Portada
METAR-TAF:

METAR-TAF

Aeropuertos :

Islay, Escocia

latitud: 55-40-55N, longitud: 006-15-24W, altitud: 16 m

Observación

El informe se hizo hace 41 minutos, a las 19:50 UTC
Viento 2 kt del norte
Temperatura 17°C
Humedad 82%
Presión 1007 hPa
Visibilidad 10 km o más

METAR: EGPI 151950Z AUTO 36002KT 9999 NCD 17/14 Q1007

Hora: 21:31 (20:31 UTC)

Pronóstico

El informe se hizo hace 6 horas y 31 minutos, a las 14:00 UTC
Pronóstico válido del 15 a las 15 UTC al 15 a las 19 UTC
Viento 6 kt del sur-sureste
Visibilidad 10 km o más
Escasas nubes a una altura de 2500 ft

TAF: EGPI 151400Z 1515/1519 15006KT 9999 FEW025

Observaciones y pronósticos meteorológicos de más de 4000 aeropuertos (mensajes METAR y TAF).

Los puntos amarillos y rojos representan las estaciones disponibles.

Ponga el ratón en el punto deseado para ver el nombre de la estación.

Haga clic para ver las observaciones y los pronósticos meteorológicos.

Para cambiar el mapa : haga clic en los botones verdes con una cruz de color negro para hacer un zoom, en el botón verde con un guión para alejar o en las flechas verdes para mapas adyacentes.


METAR-TAF: